Detall de PIREP

Printer-friendly versionPDF version

[2012/05/12 20:25:00]
Flight IATA:CT1005
Pilot Number:037
Company ICAO:CAT
Aircraft Type:B752/E
PAX:148
Departing Airport: LMML
Destination Airport: LBSF
Alternate Airport:LBWN
Online: VATSIM
Route:LORED UM600 TSL UR35 EVIVI UM987 GOL
Flight Level:F370
No Slew and time accel
No pause
Crash detect
Detect pilot in Cockpit between each 30 and 45 minutes
20:25 Zero fuel Weight: 170726 Lbs, Fuel Weight: 29023 Lbs
20:25 VATSIM:LMML 121945Z VRB02KT CAVOK 21/09 Q1018 NOSIG
20:25 VATSIM:LBSF 122000Z 32001MPS CAVOK 19/14 Q1016 NOSIG
20:37 Parking Brakes off
20:49 Take-off
20:49 Take off Weight: 198342 Lbs
20:49 Wind: 259º @ 003 Knots Heading: 314º
20:49 POS N35º 50´ 46´´ E014º 29´ 36´´
20:49 Flaps:1 at 189 Knots
20:49 Gear Up: 207 Knots
20:49 Flaps:0 at 208 Knots
21:04 Wind:354º@007 Knots Heading: 049º Ground Speed: 463 Knots Altitude 30459 ft
21:10 TOC
21:10 Fuel Weight: 22458 Lb
21:19 Wind:005º@016 Knots Heading: 050º Ground Speed: 454 Knots Altitude 37083 ft
21:34 Wind:011º@013 Knots Heading: 048º Ground Speed: 455 Knots Altitude 37030 ft
21:49 Wind:056º@014 Knots Heading: 065º Ground Speed: 436 Knots Altitude 37099 ft
22:09 TOD
22:09 Fuel Weight: 15522 Lb
22:22 Flaps:1 at 221 Knots
22:24 Flaps:2 at 200 Knots
22:26 Flaps:3 at 182 Knots
22:28 Gear Down: 172 Knots
22:29 Flaps:4 at 162 Knots
22:29 Flaps:5 at 148 Knots
22:29 Flaps:6 at 146 Knots
22:30 TouchDown:Rate -156 ft/min Speed: 133 Knots
22:30 VATSIM:LBSF 122200Z 00000MPS CAVOK 15/12 Q1016 NOSIG
22:30 Land
22:30 Wind:343º@000 Knots
22:30 Heading: 096º
22:30 Flight Duration: 01:41
22:30 Landing Weight: 184569 Lbs
22:30 POS N42º 41´ 48´´ E023º 25´ 33´´
22:36 Parking brakes on
22:36 Block to Block Duration: 01:59
22:36 Final Fuel: 13207 Lbls
22:36 Spent Fuel: 15815 Lbls
22:36 Flight Length: 545 NM
22:36 TOD Land Length: 00 NM

Exportar CSV

Powered by Drupal - Modified by Danger4k